الصفحة الرئيسية
METAR-TAF:

METAR-TAF

مطار :

Çorlu, تركيا

دائرة عرض: 41-08N, خط طول: 027-55E, ارتفاع: 173 متر

مراقبة الطقس الحالي

تاريخ ووقت الإصدار 53 دقيقة قبل الساعة 16:50UTC
ريح 5 عقدة من الشرق
درجة الحرارة 12°درجة مئوية
الرطوبة 67%
ضغط 1016 hPa
الرؤية 10 كم أو أكثر
الغيوم لا تقل 1500 م ولا وجود لمزنة ركامية السحاب الأسود

METAR: LTBU 251650Z 10005KT CAVOK 12/06 Q1016 RMK RWY22 11004KT

زمن: 20:43 (17:43 UTC)

توقعات

تاريخ ووقت الإصدار 7ساعات و 3 دقيقة قبل الساعة 10:40UTC
التوقعات صالحة من25 الساعة 12 UTC إلى 26 الساعة 12 UTC
ريح 7 عقدة من الجنوب الشرقي
الرؤية 10 كم أو أكثر
الغيوم لا تقل 1500 م ولا وجود لمزنة ركامية السحاب الأسود
أصبح
من 25 الساعة 17 UTC إلى 25 الساعة 20 UTC
ريح 10 عقدة من الشمال الشرقي
نظرية الاحتمالات 30%
من 26 الساعة 02 UTC إلى 26 الساعة 06 UTC
الرؤية: 2500 متر
غيوم متفرقة على ارتفاع 400 قدم
غيوم مفككة على ارتفاع 9000 قدم
غشاء,

TAF: LTBU 251040Z 2512/2612 13007KT CAVOK BECMG 2517/2520 04010KT PROB30 2602/2606 2500 BR SCT004 BKN090

أرصاد الطقس والتوقعات من أكثر من 4000 مطار (تقارير الطقس للمطار METAR والتنبؤ بالطقس بالمطارTAF).

المحطات المتاحة هي النقط الصفراء والحمراء على الخريطة.

حرك المؤشر فوق النقطة لمعرفة اسم المحطة.

ثم انقر لمعرفة أرصاد وتوقعات الطقس.

لتغيير الخارطة: اضغط على الأزرار الخضراء مع رمز الصليب الأسود للتكبير. على الزر الأخضر مع شرطة للتصغير، أو على الأسهم الخضراء للخرائط المجاورة.


METAR-TAF: